Time;durP1;ratioP1;P1;durP2;ratioP2;P2;SDS_P1;SDS_P2;PMS_P1;PMS_P2;Temp;Humidity;BMP_temperature;BMP_pressure;BME280_temperature;BME280_humidity;BME280_pressure;Samples;Min_cycle;Max_cycle;Signal;HPM_P1;HPM_P2
2022/07/14 00:00:03;;;;;;;4.80;1.73;;;;;;;20.24;63.56;96653.56;10414978;28;20607;-71
2022/07/14 00:05:04;;;;;;;3.70;1.50;;;;;;;20.40;61.55;96616.75;10413766;28;20221;-71
2022/07/14 00:10:05;;;;;;;3.72;1.40;;;;;;;20.40;61.94;96632.72;10414423;28;20216;-71
2022/07/14 00:15:06;;;;;;;3.33;1.60;;;;;;;20.46;61.11;96627.34;10396340;28;20255;-71
2022/07/14 00:20:07;;;;;;;3.35;1.60;;;;;;;20.38;61.74;96630.28;10413978;28;20283;-71
2022/07/14 00:25:08;;;;;;;4.00;1.40;;;;;;;20.13;62.31;96633.00;10413503;28;20275;-71
2022/07/14 00:30:09;;;;;;;3.65;1.63;;;;;;;20.02;62.59;96649.69;10413168;28;20267;-71
2022/07/14 00:35:10;;;;;;;2.17;1.52;;;;;;;19.93;63.41;96663.25;10413403;28;20220;-71
2022/07/14 00:40:12;;;;;;;2.63;1.30;;;;;;;19.95;63.93;96660.38;10394985;28;20224;-71
2022/07/14 00:45:14;;;;;;;4.05;1.17;;;;;;;19.91;64.19;96665.31;10394942;28;20302;-71
2022/07/14 00:50:16;;;;;;;3.10;1.40;;;;;;;19.81;64.96;96674.81;10413025;28;20973;-71
2022/07/14 00:55:17;;;;;;;3.17;1.40;;;;;;;19.56;65.74;96683.53;10392958;28;20224;-71
2022/07/14 01:00:18;;;;;;;1.42;1.33;;;;;;;19.29;66.98;96702.25;10393456;28;20201;-71
2022/07/14 01:05:18;;;;;;;2.80;1.50;;;;;;;19.04;69.31;96736.72;10393387;28;20232;-71
2022/07/14 01:10:19;;;;;;;6.68;1.67;;;;;;;19.07;67.86;96712.38;10393903;28;20219;-70
2022/07/14 01:15:19;;;;;;;4.57;1.77;;;;;;;18.97;69.94;96736.72;10394045;28;20760;-71
2022/07/14 01:20:20;;;;;;;3.35;1.40;;;;;;;18.85;69.75;96727.75;10411245;28;20764;-70
2022/07/14 01:25:21;;;;;;;2.72;1.60;;;;;;;18.82;71.89;96775.94;10393032;28;20220;-71
2022/07/14 01:30:22;;;;;;;3.70;1.40;;;;;;;18.44;74.44;96790.69;10393197;28;20769;-71
2022/07/14 01:35:23;;;;;;;1.40;1.30;;;;;;;18.09;75.91;96776.78;10392790;28;20213;-71
2022/07/14 01:40:24;;;;;;;3.40;1.70;;;;;;;17.69;78.33;96777.50;10392435;28;20196;-71
2022/07/14 01:45:24;;;;;;;3.05;1.83;;;;;;;17.49;79.92;96785.41;10392592;28;20561;-71
2022/07/14 01:50:25;;;;;;;4.30;1.70;;;;;;;17.56;80.04;96772.16;10410673;28;20192;-71
2022/07/14 01:55:26;;;;;;;2.60;1.70;;;;;;;17.37;81.88;96771.91;10391757;28;20219;-71
2022/07/14 02:00:26;;;;;;;3.65;1.88;;;;;;;17.39;82.52;96772.50;10392421;28;20189;-71
2022/07/14 02:05:34;;;;;;;1.65;1.55;;;;;;;17.25;84.59;96778.78;10391408;28;20228;-71
2022/07/14 02:15:55;;;;;;;1.77;1.67;;;;;;;16.97;87.68;96776.19;10391285;28;20293;-71
2022/07/14 02:20:55;;;;;;;2.28;1.98;;;;;;;16.71;90.18;96790.88;10391724;28;20665;-71
2022/07/14 02:25:58;;;;;;;3.88;2.25;;;;;;;16.49;93.21;96783.00;10390701;28;20327;-71
2022/07/14 02:30:59;;;;;;;2.33;1.80;;;;;;;16.04;99.06;96774.47;10391208;28;20188;-70
2022/07/14 02:35:59;;;;;;;2.33;2.13;;;;;;;16.12;98.19;96787.53;10390690;28;20251;-70
2022/07/14 02:41:00;;;;;;;4.40;2.60;;;;;;;16.08;99.91;96794.25;10390362;28;20193;-70
2022/07/14 02:46:01;;;;;;;7.65;2.50;;;;;;;15.76;100.00;96790.22;10374315;28;20283;-71
2022/07/14 02:51:04;;;;;;;3.45;2.50;;;;;;;15.62;100.00;96800.66;10373837;28;20188;-71
2022/07/14 02:56:06;;;;;;;5.50;2.50;;;;;;;15.62;100.00;96790.09;10390207;28;20244;-71
2022/07/14 03:01:09;;;;;;;10.70;2.40;;;;;;;15.36;100.00;96789.75;10390336;28;20200;-71
2022/07/14 03:06:11;;;;;;;4.80;2.40;;;;;;;15.09;100.00;96784.97;10384406;28;20232;-71
2022/07/14 03:11:12;;;;;;;2.30;2.10;;;;;;;14.98;100.00;96786.25;10401301;28;20231;-71
2022/07/14 03:16:12;;;;;;;2.92;2.45;;;;;;;14.83;100.00;96784.63;10384403;28;20216;-70
2022/07/14 03:21:15;;;;;;;4.45;2.65;;;;;;;14.74;100.00;96800.53;10391407;28;20234;-71
2022/07/14 03:26:20;;;;;;;4.95;2.58;;;;;;;14.69;100.00;96812.63;10391040;28;20192;-70
2022/07/14 03:31:21;;;;;;;3.80;2.42;;;;;;;14.71;100.00;96816.72;10390972;28;20279;-71
2022/07/14 03:36:22;;;;;;;3.72;2.78;;;;;;;14.75;100.00;96817.19;10390701;28;20217;-70
2022/07/14 03:41:23;;;;;;;3.38;3.05;;;;;;;14.69;100.00;96815.28;10390227;28;20189;-70
2022/07/14 03:46:24;;;;;;;4.05;3.28;;;;;;;14.71;100.00;96805.34;10390522;28;20268;-71
2022/07/14 03:51:43;;;;;;;9.55;3.03;;;;;;;14.69;100.00;96797.63;10390670;28;20207;-70
2022/07/14 03:56:44;;;;;;;4.30;3.30;;;;;;;14.83;100.00;96803.91;10389690;28;20224;-70
2022/07/14 04:01:46;;;;;;;5.95;3.13;;;;;;;15.08;100.00;96811.53;10391604;28;20280;-70
2022/07/14 04:06:46;;;;;;;4.25;2.67;;;;;;;14.97;100.00;96811.00;10395860;28;20573;-71
2022/07/14 04:11:48;;;;;;;6.22;2.60;;;;;;;15.01;100.00;96819.38;10396850;28;20184;-70
2022/07/14 04:16:51;;;;;;;4.85;3.40;;;;;;;15.15;100.00;96812.47;10395589;28;20663;-70
2022/07/14 04:21:52;;;;;;;3.35;3.05;;;;;;;15.34;100.00;96817.19;10396001;28;20185;-71
2022/07/14 04:26:53;;;;;;;4.47;3.10;;;;;;;15.47;100.00;96815.72;10395648;28;20215;-71
2022/07/14 04:31:54;;;;;;;6.10;2.80;;;;;;;15.59;100.00;96813.38;10395514;28;20188;-70
2022/07/14 04:36:57;;;;;;;5.60;2.95;;;;;;;15.62;100.00;96807.72;10394953;28;20831;-70
2022/07/14 04:41:57;;;;;;;9.35;3.28;;;;;;;15.65;100.00;96815.28;10394713;28;20192;-70
2022/07/14 04:46:58;;;;;;;6.85;3.70;;;;;;;15.93;100.00;96812.78;10394977;28;20195;-71
2022/07/14 04:52:02;;;;;;;5.22;3.35;;;;;;;16.10;100.00;96839.78;10394881;28;20239;-71
2022/07/14 04:57:04;;;;;;;5.93;3.40;;;;;;;16.49;100.00;96827.94;10378953;28;20213;-71
2022/07/14 05:02:08;;;;;;;6.63;3.35;;;;;;;16.52;100.00;96837.31;10393843;28;20280;-70
2022/07/14 05:07:10;;;;;;;5.57;3.28;;;;;;;16.55;100.00;96839.56;10394718;28;20222;-70
2022/07/14 05:12:16;;;;;;;5.78;3.33;;;;;;;16.84;100.00;96830.63;10393855;28;20189;-71
2022/07/14 05:17:18;;;;;;;4.70;3.35;;;;;;;17.04;100.00;96841.38;10393544;28;20595;-71
2022/07/14 05:22:39;;;;;;;7.82;3.35;;;;;;;17.43;100.00;96836.50;10393982;28;20215;-71
2022/07/14 05:27:44;;;;;;;5.57;3.25;;;;;;;17.74;98.92;96825.41;10393398;28;20188;-71
2022/07/14 05:32:57;;;;;;;8.38;3.60;;;;;;;17.40;100.00;96843.00;10392757;28;20196;-71
2022/07/14 05:37:57;;;;;;;5.90;3.33;;;;;;;17.36;100.00;96852.34;10392499;28;20239;-71
2022/07/14 05:43:01;;;;;;;5.97;3.20;;;;;;;18.06;92.90;96817.78;10392626;28;20238;-71
2022/07/14 05:48:01;;;;;;;8.18;3.08;;;;;;;18.30;91.96;96820.84;10392845;28;20276;-71
2022/07/14 05:53:02;;;;;;;4.40;2.90;;;;;;;18.81;88.24;96806.97;10392472;28;20191;-71
2022/07/14 05:58:03;;;;;;;5.95;3.22;;;;;;;18.96;85.87;96805.94;10391825;28;20222;-71
2022/07/14 06:03:06;;;;;;;4.95;3.22;;;;;;;19.22;85.02;96811.22;10391565;28;20319;-72
2022/07/14 06:08:07;;;;;;;8.63;3.40;;;;;;;19.36;81.44;96781.94;10409480;28;20223;-71
2022/07/14 06:13:08;;;;;;;7.72;3.40;;;;;;;19.08;82.95;96801.63;10391636;28;20280;-71
2022/07/14 06:18:10;;;;;;;4.40;2.90;;;;;;;19.45;83.20;96814.38;10408723;28;20585;-71
2022/07/14 06:23:11;;;;;;;3.75;3.03;;;;;;;19.36;83.01;96824.44;10390932;28;20365;-71
2022/07/14 06:28:11;;;;;;;5.22;3.35;;;;;;;19.09;82.34;96805.91;10390609;28;20192;-71
2022/07/14 06:33:13;;;;;;;7.88;3.30;;;;;;;18.95;84.36;96817.59;10374546;28;20193;-72
2022/07/14 06:38:14;;;;;;;5.32;3.42;;;;;;;19.33;81.86;96806.28;10408447;28;20212;-71
2022/07/14 06:43:15;;;;;;;8.30;3.40;;;;;;;18.87;84.95;96824.75;10389805;28;20283;-71
2022/07/14 06:48:24;;;;;;;4.80;3.50;;;;;;;18.14;87.28;96846.75;10390261;28;20664;-71
2022/07/14 06:53:24;;;;;;;3.47;2.90;;;;;;;18.87;86.75;96835.38;10389326;28;20188;-71
2022/07/14 06:58:25;;;;;;;4.88;3.17;;;;;;;19.24;83.33;96830.41;10373725;28;20278;-71
2022/07/14 07:03:25;;;;;;;4.40;3.30;;;;;;;19.66;80.93;96814.09;10407619;28;20236;-71
2022/07/14 07:08:28;;;;;;;5.75;3.05;;;;;;;19.74;81.60;96808.53;10407450;28;20239;-71
2022/07/14 07:13:28;;;;;;;4.50;2.95;;;;;;;20.07;78.81;96804.09;10406723;28;20204;-71
2022/07/14 07:18:28;;;;;;;4.55;3.20;;;;;;;20.42;77.63;96785.81;10390137;28;20683;-71
2022/07/14 07:23:32;;;;;;;3.75;3.00;;;;;;;20.66;76.48;96778.91;10389359;28;20243;-71
2022/07/14 07:28:33;;;;;;;8.48;3.67;;;;;;;19.05;85.09;96847.19;10390169;28;20662;-71
2022/07/14 07:33:34;;;;;;;3.97;3.30;;;;;;;19.31;83.67;96816.28;10389417;28;20192;-71
2022/07/14 07:38:34;;;;;;;4.90;3.67;;;;;;;19.61;81.18;96784.69;10406818;28;20197;-71
2022/07/14 07:43:34;;;;;;;5.38;3.15;;;;;;;20.23;80.07;96786.78;10406992;28;20656;-71
2022/07/14 07:48:35;;;;;;;5.45;3.38;;;;;;;20.65;77.56;96763.94;10406962;28;20720;-71
2022/07/14 07:53:36;;;;;;;8.40;3.40;;;;;;;21.83;73.15;96704.34;10406719;28;20657;-71
2022/07/14 07:58:36;;;;;;;4.63;3.28;;;;;;;22.13;70.47;96680.28;10406768;28;20621;-71
2022/07/14 08:03:36;;;;;;;4.32;3.05;;;;;;;21.82;72.61;96738.22;10410439;28;20232;-71
2022/07/14 08:08:37;;;;;;;5.68;3.70;;;;;;;22.19;69.54;96681.19;10413842;28;20220;-71
2022/07/14 08:13:38;;;;;;;4.38;2.67;;;;;;;23.47;66.35;96661.69;10413791;28;20195;-71
2022/07/14 08:18:38;;;;;;;6.05;3.70;;;;;;;21.67;69.04;96679.13;10414370;28;20271;-71
2022/07/14 08:23:39;;;;;;;5.47;3.08;;;;;;;21.86;69.55;96680.69;10413265;28;20199;-71
2022/07/14 08:28:39;;;;;;;9.05;3.35;;;;;;;22.01;69.73;96695.47;10413832;28;20551;-72
2022/07/14 08:33:39;;;;;;;5.22;2.83;;;;;;;22.27;67.70;96670.19;10412821;28;20208;-71
2022/07/14 08:38:40;;;;;;;5.13;2.90;;;;;;;20.66;71.65;96703.56;10412951;28;20204;-71
2022/07/14 08:43:40;;;;;;;6.22;2.70;;;;;;;20.79;70.47;96695.41;10412520;28;20203;-71
2022/07/14 08:48:41;;;;;;;5.82;2.13;;;;;;;21.54;68.67;96669.50;10395565;28;20266;-71
2022/07/14 08:53:43;;;;;;;6.43;2.50;;;;;;;22.08;65.90;96621.44;10394300;28;20196;-71
2022/07/14 08:58:46;;;;;;;2.47;2.10;;;;;;;22.72;64.90;96596.66;10394706;28;20199;-72
2022/07/14 09:03:46;;;;;;;3.72;1.83;;;;;;;23.49;60.88;96513.34;10412271;28;20351;-72
2022/07/14 09:08:55;;;;;;;2.25;1.65;;;;;;;24.01;59.79;96509.59;10411384;28;20209;-71
2022/07/14 09:14:08;;;;;;;5.85;2.00;;;;;;;23.62;62.25;96564.88;10392967;28;20662;-72
2022/07/14 09:19:10;;;;;;;3.65;2.40;;;;;;;24.30;57.01;96487.16;10393908;28;20191;-72
2022/07/14 09:24:11;;;;;;;3.65;2.00;;;;;;;25.17;56.40;96506.84;10411096;28;20189;-71
2022/07/14 09:29:25;;;;;;;3.63;2.10;;;;;;;25.36;56.04;96515.34;10411413;28;20212;-71
2022/07/14 09:34:31;;;;;;;3.47;1.90;;;;;;;25.78;54.46;96476.19;10410505;28;20213;-72
2022/07/14 09:39:32;;;;;;;3.17;1.92;;;;;;;24.91;56.07;96516.50;10410343;28;20238;-71
2022/07/14 09:44:32;;;;;;;2.58;2.00;;;;;;;24.50;55.72;96498.13;10392543;28;20242;-71
2022/07/14 09:49:33;;;;;;;3.58;1.90;;;;;;;24.00;58.93;96566.81;10393066;28;20188;-72
2022/07/14 09:54:36;;;;;;;2.20;2.00;;;;;;;22.03;66.29;96651.47;10392068;28;20220;-71
2022/07/14 09:59:57;;;;;;;3.65;2.20;;;;;;;22.64;60.30;96533.78;10410597;28;20201;-71
2022/07/14 10:05:04;;;;;;;2.63;1.98;;;;;;;21.84;64.40;96604.63;10391276;28;20232;-72
2022/07/14 10:10:06;;;;;;;6.80;2.45;;;;;;;20.70;67.16;96637.34;10409590;28;20677;-71
2022/07/14 10:15:12;;;;;;;4.55;2.20;;;;;;;22.08;63.49;96589.44;10409130;28;20259;-72
2022/07/14 10:20:15;;;;;;;6.22;1.80;;;;;;;22.72;61.79;96556.63;10409183;28;20207;-72
2022/07/14 10:25:16;;;;;;;3.42;2.03;;;;;;;24.34;59.03;96534.59;10408696;28;20181;-72
2022/07/14 10:30:16;;;;;;;2.58;1.70;;;;;;;25.91;54.58;96483.78;10408917;28;20200;-72
2022/07/14 10:35:16;;;;;;;3.08;2.08;;;;;;;25.72;54.02;96479.91;10407859;28;20235;-72
2022/07/14 10:40:28;;;;;;;2.15;1.95;;;;;;;27.04;51.20;96435.78;10407948;28;20197;-72
2022/07/14 10:45:29;;;;;;;2.88;1.60;;;;;;;27.96;49.06;96417.88;10408460;28;21033;-73
2022/07/14 10:50:30;;;;;;;3.22;2.03;;;;;;;28.32;47.58;96400.75;10408030;28;20557;-72
2022/07/14 10:55:30;;;;;;;4.18;1.95;;;;;;;28.51;46.73;96373.97;10407885;28;20224;-72
2022/07/14 11:00:47;;;;;;;3.45;2.10;;;;;;;27.68;47.89;96382.41;10408053;28;20193;-72
2022/07/14 11:06:00;;;;;;;6.25;2.38;;;;;;;23.24;59.61;96532.47;10407049;28;20670;-72
2022/07/14 11:11:01;;;;;;;5.53;2.90;;;;;;;23.84;57.12;96474.84;10408212;28;20200;-72
2022/07/14 11:16:03;;;;;;;3.25;2.10;;;;;;;24.67;56.07;96467.78;10401748;28;20751;-72
2022/07/14 11:21:15;;;;;;;5.03;2.40;;;;;;;24.27;57.32;96488.47;10366985;28;20672;-72
2022/07/14 11:26:35;;;;;;;4.45;2.40;;;;;;;24.67;55.45;96451.69;10366487;28;20191;-72
2022/07/14 11:31:53;;;;;;;4.72;2.35;;;;;;;24.70;55.47;96451.19;10366734;28;20196;-71
2022/07/14 11:37:01;;;;;;;5.63;2.50;;;;;;;24.14;58.39;96512.94;10367760;28;20315;-71
2022/07/14 11:42:12;;;;;;;4.70;2.63;;;;;;;23.28;60.95;96524.78;10373433;28;20196;-71
2022/07/14 11:47:22;;;;;;;7.47;3.08;;;;;;;24.02;57.76;96468.38;10374103;28;20574;-71
2022/07/14 11:52:29;;;;;;;2.85;2.50;;;;;;;26.09;53.24;96414.63;10356109;28;20224;-71
2022/07/14 11:57:29;;;;;;;5.30;2.78;;;;;;;25.88;53.97;96416.38;10356656;28;20279;-71
2022/07/14 12:02:30;;;;;;;5.00;2.50;;;;;;;25.18;54.81;96403.09;10373036;28;20287;-71
2022/07/14 12:07:43;;;;;;;3.22;2.42;;;;;;;24.01;58.56;96476.63;10373798;28;20206;-71
2022/07/14 12:12:47;;;;;;;7.53;2.60;;;;;;;24.60;57.09;96456.47;10372872;28;20580;-71
2022/07/14 12:17:48;;;;;;;3.15;2.33;;;;;;;23.71;59.53;96496.56;10372831;28;20217;-71
2022/07/14 12:22:54;;;;;;;4.53;2.15;;;;;;;25.91;55.63;96440.84;10355140;28;20658;-71
2022/07/14 12:27:55;;;;;;;6.15;2.80;;;;;;;26.35;54.31;96404.75;10372739;28;20185;-71
2022/07/14 12:32:55;;;;;;;7.22;2.60;;;;;;;28.47;48.72;96341.38;10372307;28;20197;-71
2022/07/14 12:37:56;;;;;;;3.78;2.08;;;;;;;27.49;50.91;96373.31;10372073;28;20217;-71
2022/07/14 12:42:57;;;;;;;3.42;2.45;;;;;;;25.83;52.24;96343.91;10355062;28;20552;-71
2022/07/14 12:48:01;;;;;;;3.08;2.40;;;;;;;26.07;53.23;96377.31;10352984;28;20483;-71
2022/07/14 12:53:07;;;;;;;3.85;3.50;;;;;;;26.57;51.93;96345.44;10371779;28;20189;-71
2022/07/14 12:58:09;;;;;;;7.43;2.70;;;;;;;28.21;49.74;96355.03;10371735;28;20595;-71
2022/07/14 13:03:17;;;;;;;2.22;2.03;;;;;;;28.58;48.14;96326.75;10371034;28;20240;-71
2022/07/14 13:08:37;;;;;;;4.43;2.40;;;;;;;24.61;55.22;96380.41;10371388;28;20213;-71
2022/07/14 13:13:40;;;;;;;5.22;2.63;;;;;;;24.67;56.85;96420.38;10371077;28;20205;-71
2022/07/14 13:19:14;;;;;;;2.70;2.22;;;;;;;23.15;61.32;96473.28;10353405;28;20360;-71
2022/07/14 13:24:17;;;;;;;4.22;2.67;;;;;;;23.68;60.61;96467.63;10389650;28;20203;-71
2022/07/14 13:29:17;;;;;;;5.00;2.22;;;;;;;24.56;59.23;96450.75;10412260;28;20657;-70
2022/07/14 13:34:18;;;;;;;3.78;2.72;;;;;;;24.63;58.80;96464.81;10394351;28;20219;-72
2022/07/14 13:39:18;;;;;;;4.85;2.83;;;;;;;23.40;62.01;96489.94;10410452;28;20254;-72
2022/07/14 13:44:19;;;;;;;6.90;2.70;;;;;;;22.87;65.38;96543.53;10411162;28;20215;-72
2022/07/14 13:49:20;;;;;;;5.40;2.20;;;;;;;23.39;62.40;96486.47;10411322;28;20216;-72
2022/07/14 13:54:20;;;;;;;5.32;2.50;;;;;;;23.76;62.01;96483.25;10410673;28;20217;-72
2022/07/14 13:59:21;;;;;;;4.95;2.63;;;;;;;24.28;61.74;96479.38;10409828;28;20232;-72
2022/07/14 14:04:21;;;;;;;9.18;2.67;;;;;;;23.39;59.40;96390.22;10410238;28;20228;-70
2022/07/14 14:09:27;;;;;;;3.30;2.47;;;;;;;23.57;61.53;96464.00;10410099;28;20654;-72
2022/07/14 14:14:28;;;;;;;3.30;2.22;;;;;;;24.27;59.40;96426.09;10410138;28;20228;-72
2022/07/14 14:19:28;;;;;;;7.70;2.75;;;;;;;24.68;57.77;96392.53;10409868;28;20216;-72
2022/07/14 14:24:28;;;;;;;4.22;2.40;;;;;;;24.35;59.78;96412.25;10418630;28;20223;-72
2022/07/14 14:29:29;;;;;;;4.00;2.70;;;;;;;24.38;59.92;96422.47;10437525;28;20219;-72
2022/07/14 14:34:29;;;;;;;5.00;1.92;;;;;;;23.93;61.08;96437.75;10428448;28;20220;-72
2022/07/14 14:39:29;;;;;;;2.78;2.03;;;;;;;23.86;60.52;96424.56;10415561;28;20193;-72
2022/07/14 14:44:30;;;;;;;2.17;1.98;;;;;;;24.06;60.93;96431.22;10408903;28;20279;-72
2022/07/14 14:49:34;;;;;;;2.40;2.17;;;;;;;23.69;61.69;96439.81;10408652;28;20258;-72
2022/07/14 14:54:34;;;;;;;2.38;2.00;;;;;;;23.33;62.80;96429.44;10408262;28;20666;-72
2022/07/14 14:59:35;;;;;;;2.85;2.00;;;;;;;23.80;60.91;96398.78;10408456;28;20202;-72
2022/07/14 15:04:35;;;;;;;4.72;2.60;;;;;;;23.26;63.12;96436.81;10408667;28;20224;-73
2022/07/14 15:09:35;;;;;;;5.50;2.60;;;;;;;22.59;64.91;96482.94;10408041;28;20255;-72
2022/07/14 15:14:36;;;;;;;7.57;2.60;;;;;;;22.43;65.28;96463.16;10407168;28;20703;-72
2022/07/14 15:19:36;;;;;;;12.30;2.53;;;;;;;22.70;65.69;96451.91;10408282;28;20204;-72
2022/07/14 15:24:37;;;;;;;11.73;2.80;;;;;;;22.44;65.23;96430.88;10407843;28;20215;-72
2022/07/14 15:29:38;;;;;;;6.72;2.90;;;;;;;22.46;66.04;96461.88;10407556;28;20193;-72
2022/07/14 15:34:38;;;;;;;8.73;2.90;;;;;;;22.07;67.00;96452.56;10407804;28;20224;-72
2022/07/14 15:44:58;;;;;;;6.88;2.75;;;;;;;21.72;73.22;96554.75;10407428;28;20555;-72
2022/07/14 15:49:58;;;;;;;8.10;3.03;;;;;;;20.85;76.31;96528.63;10407458;28;20199;-72
2022/07/14 15:54:59;;;;;;;8.68;3.60;;;;;;;20.76;82.26;96522.78;10407114;28;20220;-72
2022/07/14 15:59:59;;;;;;;13.07;4.20;;;;;;;20.38;87.49;96537.16;10407360;28;20196;-72
2022/07/14 16:05:00;;;;;;;9.30;3.72;;;;;;;19.92;98.85;96517.22;10407676;28;20329;-72
2022/07/14 16:10:01;;;;;;;6.45;3.55;;;;;;;19.59;100.00;96516.50;10406724;28;20217;-72
2022/07/14 16:15:03;;;;;;;8.63;3.95;;;;;;;19.34;100.00;96515.69;10406353;28;20302;-73
2022/07/14 16:20:04;;;;;;;9.13;4.43;;;;;;;19.20;100.00;96518.47;10407142;28;20192;-73
2022/07/14 16:25:05;;;;;;;10.68;6.30;;;;;;;18.09;100.00;96509.84;10411957;28;20180;-72
2022/07/14 16:30:06;;;;;;;10.60;5.68;;;;;;;17.90;100.00;96513.34;10414305;28;20586;-73
2022/07/14 16:35:07;;;;;;;11.27;5.40;;;;;;;17.69;100.00;96524.97;10413945;28;20718;-72
2022/07/14 16:40:08;;;;;;;11.93;6.15;;;;;;;17.42;100.00;96506.47;10413913;28;20206;-72
2022/07/14 16:45:09;;;;;;;8.35;5.40;;;;;;;17.02;100.00;96499.34;10413881;28;20199;-73
2022/07/14 16:50:10;;;;;;;11.70;6.30;;;;;;;16.99;100.00;96470.63;10413987;28;20645;-73
2022/07/14 16:55:11;;;;;;;8.15;6.25;;;;;;;17.06;100.00;96454.75;10413146;28;20224;-73
2022/07/14 17:00:14;;;;;;;14.18;8.73;;;;;;;17.48;100.00;96452.69;10395568;28;20554;-73
2022/07/14 17:10:33;;;;;;;14.10;7.15;;;;;;;18.32;100.00;96453.66;10412553;28;20200;-73
2022/07/14 17:15:33;;;;;;;10.50;7.30;;;;;;;18.83;100.00;96451.91;10395213;28;20622;-73
2022/07/14 17:20:34;;;;;;;8.48;5.75;;;;;;;19.04;100.00;96447.31;10412074;28;20294;-73
2022/07/14 17:25:34;;;;;;;7.40;5.57;;;;;;;19.65;100.00;96440.41;10394163;28;20192;-73
2022/07/14 17:30:34;;;;;;;13.25;5.90;;;;;;;19.47;100.00;96446.50;10411566;28;20200;-73
2022/07/14 17:35:35;;;;;;;8.07;5.85;;;;;;;19.18;100.00;96464.75;10410589;28;20220;-73
2022/07/14 17:40:35;;;;;;;9.48;5.45;;;;;;;19.07;100.00;96465.47;10410244;28;20534;-72
2022/07/14 17:45:36;;;;;;;8.85;5.00;;;;;;;19.19;100.00;96469.03;10393142;28;20193;-73
2022/07/14 17:50:37;;;;;;;13.48;5.65;;;;;;;19.21;100.00;96471.47;10410228;28;20665;-73
2022/07/14 17:55:38;;;;;;;10.77;5.32;;;;;;;18.97;100.00;96473.09;10410112;28;20705;-72
2022/07/14 18:00:39;;;;;;;9.85;5.55;;;;;;;17.93;100.00;96497.03;10409804;28;20208;-72
2022/07/14 18:05:39;;;;;;;11.00;6.07;;;;;;;18.21;100.00;96491.44;10409793;28;20595;-72
2022/07/14 18:10:39;;;;;;;9.80;6.60;;;;;;;17.62;100.00;96493.22;10392068;28;20657;-72
2022/07/14 18:15:40;;;;;;;11.13;6.18;;;;;;;17.97;100.00;96508.84;10392375;28;20212;-72
2022/07/14 18:20:41;;;;;;;9.38;6.38;;;;;;;17.89;100.00;96515.19;10409313;28;20299;-72
2022/07/14 18:25:42;;;;;;;15.25;7.00;;;;;;;17.91;100.00;96509.69;10409154;28;20254;-72
2022/07/14 18:30:42;;;;;;;13.95;6.35;;;;;;;17.83;100.00;96508.84;10408810;28;20188;-72
2022/07/14 18:35:42;;;;;;;10.32;6.95;;;;;;;17.86;100.00;96522.72;10408524;28;20592;-72
2022/07/14 18:40:43;;;;;;;9.50;6.15;;;;;;;17.74;100.00;96517.25;10408295;28;20263;-72
2022/07/14 18:51:05;;;;;;;11.60;6.90;;;;;;;17.23;100.00;96519.53;10407950;28;20234;-72
2022/07/14 18:56:06;;;;;;;13.27;7.93;;;;;;;16.72;100.00;96530.59;10408103;28;20308;-72
2022/07/14 19:01:07;;;;;;;12.70;7.95;;;;;;;16.74;100.00;96539.16;10408206;28;20242;-72
2022/07/14 19:06:07;;;;;;;14.90;6.80;;;;;;;16.72;100.00;96555.25;10407753;28;20286;-72
2022/07/14 19:11:09;;;;;;;15.20;7.07;;;;;;;16.68;100.00;96548.72;10407934;28;20188;-72
2022/07/14 19:16:09;;;;;;;18.15;8.40;;;;;;;16.32;100.00;96552.44;10390318;28;20307;-72
2022/07/14 19:21:10;;;;;;;12.95;7.57;;;;;;;16.44;100.00;96552.69;10407478;28;20272;-72
2022/07/14 19:26:10;;;;;;;23.35;8.20;;;;;;;16.36;100.00;96566.09;10408600;28;20181;-72
2022/07/14 19:31:12;;;;;;;14.15;8.07;;;;;;;16.15;100.00;96570.44;10407046;28;20246;-72
2022/07/14 19:36:12;;;;;;;12.10;8.30;;;;;;;16.04;100.00;96586.84;10407605;28;20232;-72
2022/07/14 19:41:14;;;;;;;13.10;6.47;;;;;;;16.19;100.00;96582.28;10407632;28;20653;-72
2022/07/14 19:46:14;;;;;;;14.63;5.85;;;;;;;16.41;100.00;96588.25;10406939;28;20189;-72
2022/07/14 19:51:15;;;;;;;9.63;5.20;;;;;;;16.35;100.00;96598.81;10407491;28;20681;-72
2022/07/14 19:56:15;;;;;;;10.68;4.55;;;;;;;16.23;100.00;96598.53;10389000;28;20568;-72
2022/07/14 20:01:15;;;;;;;6.78;3.67;;;;;;;16.04;100.00;96606.16;10413812;28;20200;-72
2022/07/14 20:06:16;;;;;;;4.85;2.67;;;;;;;15.94;100.00;96621.56;10414751;28;20323;-72
2022/07/14 20:11:16;;;;;;;5.53;3.03;;;;;;;15.83;100.00;96612.34;10414353;28;20207;-72
2022/07/14 20:16:18;;;;;;;5.40;1.90;;;;;;;15.80;91.86;96580.19;10414364;28;20315;-72
2022/07/14 20:21:19;;;;;;;8.82;1.65;;;;;;;15.61;89.09;96579.81;10413640;28;20188;-72
2022/07/14 20:26:19;;;;;;;6.18;1.63;;;;;;;15.52;87.53;96592.34;10414769;28;20192;-72
2022/07/14 20:36:38;;;;;;;5.38;1.58;;;;;;;15.32;82.90;96580.81;10414058;28;20256;-71
2022/07/14 20:41:39;;;;;;;7.00;1.30;;;;;;;15.18;81.82;96577.25;10413497;28;20193;-72
2022/07/14 20:51:58;;;;;;;4.60;1.48;;;;;;;15.10;81.38;96593.19;10413287;28;20228;-71
2022/07/14 20:56:58;;;;;;;2.85;1.20;;;;;;;15.09;82.25;96607.38;10412177;28;20690;-71
2022/07/14 21:01:59;;;;;;;9.57;1.42;;;;;;;14.90;83.16;96628.09;10412728;28;20196;-71
2022/07/14 21:06:59;;;;;;;6.82;1.33;;;;;;;14.65;83.70;96637.31;10411488;28;20276;-71
2022/07/14 21:12:00;;;;;;;3.90;1.00;;;;;;;14.51;84.15;96641.59;10411204;28;20195;-72
2022/07/14 21:17:00;;;;;;;3.60;1.20;;;;;;;14.26;88.67;96692.72;10411300;28;20220;-71
2022/07/14 21:22:01;;;;;;;9.07;1.30;;;;;;;14.25;85.05;96648.94;10411809;28;20189;-71
2022/07/14 21:27:01;;;;;;;3.80;1.23;;;;;;;14.07;90.75;96698.50;10411358;28;20707;-71
2022/07/14 21:32:02;;;;;;;12.77;1.83;;;;;;;13.48;100.00;96704.44;10411726;28;20192;-71
2022/07/14 21:37:02;;;;;;;4.15;1.60;;;;;;;12.61;100.00;96713.19;10410697;28;20731;-71
2022/07/14 21:42:03;;;;;;;3.67;1.50;;;;;;;12.37;100.00;96721.97;10411559;28;20189;-71
2022/07/14 21:47:03;;;;;;;6.20;1.98;;;;;;;12.19;100.00;96722.16;10411115;28;20214;-71
2022/07/14 21:52:04;;;;;;;3.60;1.70;;;;;;;12.18;100.00;96728.41;10393635;28;20196;-71
2022/07/14 21:57:04;;;;;;;9.40;2.42;;;;;;;12.03;100.00;96736.13;10410400;28;20216;-72
2022/07/14 22:02:04;;;;;;;10.43;2.08;;;;;;;12.09;100.00;96741.53;10392583;28;20787;-72
2022/07/14 22:07:05;;;;;;;6.57;2.35;;;;;;;11.93;100.00;96739.75;10410171;28;20213;-71
2022/07/14 22:12:05;;;;;;;6.97;1.98;;;;;;;11.81;100.00;96743.66;10409979;28;20204;-71
2022/07/14 22:17:06;;;;;;;9.27;2.22;;;;;;;11.68;100.00;96759.03;10410165;28;20221;-71
2022/07/14 22:22:06;;;;;;;12.98;1.90;;;;;;;11.57;100.00;96766.22;10409407;28;20214;-71
2022/07/14 22:27:12;;;;;;;3.75;1.88;;;;;;;11.50;100.00;96767.88;10409106;28;20192;-71
2022/07/14 22:32:13;;;;;;;7.60;1.85;;;;;;;11.48;100.00;96771.63;10409769;28;20204;-71
2022/07/14 22:37:14;;;;;;;3.25;2.08;;;;;;;11.44;100.00;96781.63;10408383;28;20228;-71
2022/07/14 22:42:14;;;;;;;5.45;1.67;;;;;;;11.39;100.00;96782.13;10409358;28;20279;-71
2022/07/14 22:47:15;;;;;;;5.55;1.48;;;;;;;11.47;100.00;96772.59;10408538;28;20549;-71
2022/07/14 22:52:16;;;;;;;7.60;1.92;;;;;;;11.55;100.00;96765.59;10409106;28;21157;-71
2022/07/14 22:57:16;;;;;;;2.42;1.40;;;;;;;11.95;100.00;96745.63;10408117;28;20220;-71
2022/07/14 23:02:17;;;;;;;2.17;0.90;;;;;;;11.92;100.00;96774.00;10408054;28;20192;-71
2022/07/14 23:07:17;;;;;;;2.53;1.30;;;;;;;11.86;99.74;96772.84;10406311;28;20346;-72
2022/07/14 23:12:26;;;;;;;2.08;1.20;;;;;;;11.84;98.90;96768.72;10408320;28;20200;-71
2022/07/14 23:17:26;;;;;;;4.45;1.30;;;;;;;11.79;100.00;96782.34;10407688;28;20219;-71
2022/07/14 23:22:27;;;;;;;2.30;1.33;;;;;;;11.65;100.00;96794.28;10408276;28;20554;-71
2022/07/14 23:27:27;;;;;;;4.97;1.55;;;;;;;11.41;100.00;96801.13;10407418;28;20591;-71
2022/07/14 23:32:27;;;;;;;7.25;1.90;;;;;;;11.20;100.00;96801.53;10409133;28;20579;-71
2022/07/14 23:37:28;;;;;;;4.55;1.60;;;;;;;11.27;100.00;96801.75;10415043;28;20578;-71
2022/07/14 23:42:28;;;;;;;3.10;1.48;;;;;;;11.23;100.00;96801.22;10415154;28;20326;-71
2022/07/14 23:47:29;;;;;;;4.55;1.42;;;;;;;11.11;100.00;96806.94;10397811;28;20667;-71